Time;durP1;ratioP1;P1;durP2;ratioP2;P2;SDS_P1;SDS_P2;PMS_P1;PMS_P2;Temp;Humidity;BMP_temperature;BMP_pressure;BME280_temperature;BME280_humidity;BME280_pressure;Samples;Min_cycle;Max_cycle;Signal;HPM_P1;HPM_P2
2023/04/30 00:00:14;;;;;;;1999.90;999.90;;;;;;;12.29;100.00;95430.22;5010471;28;20171;-77
2023/04/30 00:02:40;;;;;;;1999.90;999.90;;;;;;;12.25;100.00;95437.72;5010668;28;20257;-76
2023/04/30 00:05:05;;;;;;;1999.90;999.90;;;;;;;12.23;100.00;95429.13;5010360;28;20273;-78
2023/04/30 00:07:31;;;;;;;1999.90;999.90;;;;;;;12.24;100.00;95428.72;5010502;28;20203;-78
2023/04/30 00:09:56;;;;;;;1999.90;999.90;;;;;;;12.30;100.00;95426.28;5009399;28;20214;-77
2023/04/30 00:12:22;;;;;;;1999.90;999.90;;;;;;;12.23;100.00;95423.66;5009814;28;20213;-76
2023/04/30 00:14:48;;;;;;;1999.90;999.90;;;;;;;12.24;100.00;95427.94;5009845;28;20209;-77
2023/04/30 00:17:13;;;;;;;1999.90;999.90;;;;;;;12.01;100.00;95430.59;5009825;28;20202;-79
2023/04/30 00:19:38;;;;;;;1999.90;999.90;;;;;;;12.08;100.00;95430.50;5009704;28;20225;-79
2023/04/30 00:22:05;;;;;;;1999.90;999.90;;;;;;;12.15;100.00;95424.94;5010006;28;20228;-79
2023/04/30 00:24:30;;;;;;;1999.90;999.90;;;;;;;12.15;100.00;95425.72;5010075;28;20198;-80
2023/04/30 00:26:55;;;;;;;1999.90;999.90;;;;;;;12.11;100.00;95429.69;5009900;28;20278;-79
2023/04/30 00:29:21;;;;;;;1999.90;999.90;;;;;;;12.17;100.00;95422.56;5009894;28;20221;-81
2023/04/30 00:31:46;;;;;;;1999.90;999.90;;;;;;;12.03;100.00;95431.75;5010002;28;20204;-82
2023/04/30 00:34:12;;;;;;;1999.90;999.90;;;;;;;11.90;100.00;95424.47;5009979;28;20203;-83
2023/04/30 00:36:38;;;;;;;1999.90;999.90;;;;;;;11.91;100.00;95412.38;5009452;28;20202;-82
2023/04/30 00:39:03;;;;;;;1999.90;999.90;;;;;;;11.96;100.00;95418.16;5009745;28;20203;-80
2023/04/30 00:41:30;;;;;;;1999.90;999.90;;;;;;;11.97;100.00;95413.44;5009409;28;20201;-79
2023/04/30 00:43:56;;;;;;;1999.90;999.90;;;;;;;11.90;100.00;95408.84;5009385;28;20199;-79
2023/04/30 00:46:21;;;;;;;1999.90;999.90;;;;;;;11.99;100.00;95411.84;5009150;28;20242;-77
2023/04/30 00:48:47;;;;;;;1999.90;999.90;;;;;;;12.03;100.00;95407.13;5009126;28;20194;-76
2023/04/30 00:51:13;;;;;;;1999.90;999.90;;;;;;;12.05;100.00;95399.25;5008923;28;20203;-77
2023/04/30 00:53:40;;;;;;;1999.90;999.90;;;;;;;12.05;100.00;95404.72;5009131;28;20198;-77
2023/04/30 00:56:07;;;;;;;1999.90;999.90;;;;;;;11.92;100.00;95402.97;5009203;28;20241;-76
2023/04/30 00:58:34;;;;;;;1999.90;999.90;;;;;;;11.90;100.00;95402.59;5008903;28;20234;-78
2023/04/30 01:01:00;;;;;;;1999.90;999.90;;;;;;;11.84;100.00;95387.84;5008960;28;20186;-77
2023/04/30 01:03:27;;;;;;;1999.90;999.90;;;;;;;11.78;100.00;95392.22;5008971;28;20203;-76
2023/04/30 01:05:53;;;;;;;1999.90;999.90;;;;;;;11.77;100.00;95390.66;5008718;28;20225;-77
2023/04/30 01:08:18;;;;;;;1999.90;999.90;;;;;;;11.72;100.00;95383.69;5009128;28;20207;-81
2023/04/30 01:10:52;;;;;;;1999.90;999.90;;;;;;;11.70;100.00;95388.00;5009095;28;20210;-78
2023/04/30 01:13:29;;;;;;;1999.90;999.90;;;;;;;11.64;100.00;95389.66;5008834;28;20202;-79
2023/04/30 01:16:18;;;;;;;1999.90;999.90;;;;;;;11.66;100.00;95379.09;5008712;28;20202;-78
2023/04/30 01:18:50;;;;;;;1999.90;999.90;;;;;;;11.56;100.00;95383.47;5008587;28;20209;-74
2023/04/30 01:21:19;;;;;;;1999.90;999.90;;;;;;;11.61;100.00;95379.50;5008724;28;20178;-76
2023/04/30 01:24:19;;;;;;;1999.90;999.90;;;;;;;11.61;100.00;95365.84;5008450;28;20203;-74
2023/04/30 01:27:22;;;;;;;1999.90;999.90;;;;;;;11.56;100.00;95369.00;5008187;28;20289;-76
2023/04/30 01:29:49;;;;;;;1999.90;999.90;;;;;;;11.45;100.00;95354.69;5008440;28;20235;-77
2023/04/30 01:32:14;;;;;;;1999.90;999.90;;;;;;;11.52;100.00;95365.53;5008255;28;20202;-75
2023/04/30 01:34:39;;;;;;;1999.90;999.90;;;;;;;11.42;100.00;95352.78;5008120;28;20206;-77
2023/04/30 01:37:16;;;;;;;1999.90;999.90;;;;;;;11.37;100.00;95347.75;5008654;28;20232;-78
2023/04/30 01:40:16;;;;;;;1999.90;999.90;;;;;;;11.40;100.00;95346.94;5008688;28;20248;-75
2023/04/30 01:42:54;;;;;;;1999.90;999.90;;;;;;;11.51;100.00;95339.41;5008261;28;20234;-76
2023/04/30 01:45:40;;;;;;;1999.90;999.90;;;;;;;11.59;100.00;95332.63;5007905;28;20225;-78
2023/04/30 01:48:20;;;;;;;1999.90;999.90;;;;;;;11.45;100.00;95336.34;5007936;28;20195;-76
2023/04/30 01:51:00;;;;;;;1999.90;999.90;;;;;;;11.57;100.00;95329.53;5008412;28;20216;-76
2023/04/30 01:53:40;;;;;;;1999.90;999.90;;;;;;;11.58;100.00;95333.84;5008346;28;20205;-79
2023/04/30 01:56:10;;;;;;;1999.90;999.90;;;;;;;11.40;100.00;95328.56;5008429;28;20203;-80
2023/04/30 01:58:37;;;;;;;1999.90;999.90;;;;;;;11.38;100.00;95332.91;5007899;28;20206;-77
2023/04/30 02:01:03;;;;;;;1999.90;999.90;;;;;;;11.37;100.00;95323.16;5007796;28;20203;-80
2023/04/30 02:03:28;;;;;;;1999.90;999.90;;;;;;;11.38;100.00;95322.75;5008265;28;20209;-77
2023/04/30 02:05:54;;;;;;;1999.90;999.90;;;;;;;11.42;100.00;95320.75;5007832;28;20233;-77
2023/04/30 02:08:19;;;;;;;1999.90;999.90;;;;;;;11.48;100.00;95321.06;5007916;28;20229;-81
2023/04/30 02:10:45;;;;;;;1999.90;999.90;;;;;;;11.45;100.00;95321.88;5007838;28;20210;-81
2023/04/30 02:13:10;;;;;;;1999.90;999.90;;;;;;;11.46;100.00;95320.69;5008179;28;20206;-78
2023/04/30 02:15:35;;;;;;;1999.90;999.90;;;;;;;11.41;100.00;95321.16;5007931;28;20199;-77
2023/04/30 02:18:01;;;;;;;1999.90;999.90;;;;;;;11.31;100.00;95311.91;5008078;28;20229;-77
2023/04/30 02:20:26;;;;;;;1999.90;999.90;;;;;;;11.39;100.00;95307.09;5007673;28;20259;-77
2023/04/30 02:22:52;;;;;;;1999.90;999.90;;;;;;;11.44;100.00;95304.69;5007694;28;20203;-75
2023/04/30 02:25:17;;;;;;;1999.90;999.90;;;;;;;11.33;100.00;95309.53;5007674;28;20214;-77
2023/04/30 02:27:42;;;;;;;1999.90;999.90;;;;;;;11.42;100.00;95306.28;5007601;28;20213;-75
2023/04/30 02:30:08;;;;;;;1999.90;999.90;;;;;;;11.34;100.00;95315.78;5007869;28;20274;-77
2023/04/30 02:32:33;;;;;;;1999.90;999.90;;;;;;;11.42;100.00;95300.81;5007827;28;20202;-73
2023/04/30 02:34:59;;;;;;;1999.90;999.90;;;;;;;11.44;100.00;95299.22;5011203;28;20205;-72
2023/04/30 02:37:24;;;;;;;1999.90;999.90;;;;;;;11.34;100.00;95310.31;5012162;28;20210;-77
2023/04/30 02:39:50;;;;;;;1999.90;999.90;;;;;;;11.34;100.00;95296.63;5011743;28;20315;-77
2023/04/30 02:42:16;;;;;;;1999.90;999.90;;;;;;;11.38;100.00;95300.09;5011721;28;20245;-78
2023/04/30 02:44:41;;;;;;;1999.90;999.90;;;;;;;11.22;100.00;95297.19;5011789;28;20210;-77
2023/04/30 02:47:06;;;;;;;1999.90;999.90;;;;;;;11.10;100.00;95289.50;5011749;28;20215;-78
2023/04/30 02:49:32;;;;;;;1999.90;999.90;;;;;;;11.19;100.00;95284.34;5011899;28;20233;-79
2023/04/30 02:51:57;;;;;;;1999.90;999.90;;;;;;;11.19;100.00;95284.34;5011927;28;20209;-80
2023/04/30 02:54:23;;;;;;;1999.90;999.90;;;;;;;11.07;100.00;95279.41;5011527;28;20235;-75
2023/04/30 02:56:48;;;;;;;1999.90;999.90;;;;;;;11.12;100.00;95273.47;5011333;28;20205;-81
2023/04/30 02:59:14;;;;;;;1999.90;999.90;;;;;;;11.19;100.00;95276.13;5011421;28;20203;-77
2023/04/30 03:01:39;;;;;;;1999.90;999.90;;;;;;;11.03;100.00;95271.25;5011655;28;20198;-78
2023/04/30 03:04:04;;;;;;;1999.90;999.90;;;;;;;11.12;100.00;95270.75;5011534;28;20223;-80
2023/04/30 03:06:31;;;;;;;1999.90;999.90;;;;;;;11.17;100.00;95270.28;5011514;28;20214;-75
2023/04/30 03:08:57;;;;;;;1999.90;999.90;;;;;;;11.13;100.00;95266.81;5011206;28;20196;-77
2023/04/30 03:11:22;;;;;;;1999.90;999.90;;;;;;;11.09;100.00;95268.84;5010930;28;20202;-75
2023/04/30 03:13:51;;;;;;;1999.90;999.90;;;;;;;11.15;100.00;95254.28;5010896;28;20208;-76
2023/04/30 03:16:18;;;;;;;1999.90;999.90;;;;;;;11.11;100.00;95255.53;5011068;28;20204;-82
2023/04/30 03:18:44;;;;;;;1999.90;999.90;;;;;;;11.12;100.00;95249.66;5011209;28;20205;-76
2023/04/30 03:21:09;;;;;;;1999.90;999.90;;;;;;;10.99;100.00;95245.91;5011403;28;20209;-80
2023/04/30 03:23:35;;;;;;;1999.90;999.90;;;;;;;10.75;100.00;95246.22;5010743;28;20206;-79
2023/04/30 03:26:00;;;;;;;1999.90;999.90;;;;;;;10.89;100.00;95235.13;5010683;28;20285;-78
2023/04/30 03:28:26;;;;;;;1999.90;999.90;;;;;;;10.84;100.00;95227.38;5010734;28;20202;-78
2023/04/30 03:30:51;;;;;;;1999.90;999.90;;;;;;;10.72;100.00;95219.72;5010674;28;20270;-79
2023/04/30 03:33:17;;;;;;;1999.90;999.90;;;;;;;10.74;100.00;95212.66;5010620;28;20231;-84
2023/04/30 03:35:42;;;;;;;1999.90;999.90;;;;;;;10.71;100.00;95197.09;5010779;28;20225;-76
2023/04/30 03:38:08;;;;;;;1999.90;999.90;;;;;;;10.62;100.00;95190.56;5010522;28;20226;-77
2023/04/30 03:40:33;;;;;;;1999.90;999.90;;;;;;;10.63;100.00;95167.56;5010736;28;20200;-77
2023/04/30 03:42:58;;;;;;;1999.90;999.90;;;;;;;10.51;100.00;95159.88;5010299;28;20205;-77
2023/04/30 03:45:24;;;;;;;1999.90;999.90;;;;;;;10.57;100.00;95147.34;5009437;28;20225;-76
2023/04/30 03:47:50;;;;;;;1999.90;999.90;;;;;;;10.41;100.00;95133.50;5011111;28;20209;-76
2023/04/30 03:50:17;;;;;;;1999.90;999.90;;;;;;;10.30;100.00;95105.56;5009986;28;20209;-76
2023/04/30 03:52:42;;;;;;;1999.90;999.90;;;;;;;10.13;100.00;95069.13;5010206;28;20205;-76
2023/04/30 03:55:08;;;;;;;1999.90;999.90;;;;;;;10.29;100.00;95038.50;5010193;28;20255;-79
2023/04/30 03:57:33;;;;;;;1999.90;999.90;;;;;;;10.20;100.00;95008.22;5010015;28;20206;-77
2023/04/30 03:59:58;;;;;;;1999.90;999.90;;;;;;;10.14;100.00;94986.84;5010155;28;20268;-77
2023/04/30 04:02:24;;;;;;;1999.90;999.90;;;;;;;10.14;100.00;94981.38;5009852;28;20209;-77
2023/04/30 04:04:50;;;;;;;1999.90;999.90;;;;;;;10.17;100.00;94906.13;5009923;28;20195;-79
2023/04/30 04:07:16;;;;;;;1999.90;999.90;;;;;;;10.09;100.00;94882.84;5009890;28;20203;-77
2023/04/30 04:09:41;;;;;;;1999.90;999.90;;;;;;;10.15;100.00;94878.47;5010020;28;20257;-79
2023/04/30 04:12:07;;;;;;;1999.90;999.90;;;;;;;10.10;100.00;94874.25;5009828;28;20202;-83
2023/04/30 04:14:33;;;;;;;1999.90;999.90;;;;;;;10.19;100.00;94854.66;5009901;28;20186;-79
2023/04/30 04:16:58;;;;;;;1999.90;999.90;;;;;;;10.30;100.00;94857.22;5010072;28;20202;-83
2023/04/30 04:19:25;;;;;;;1999.90;999.90;;;;;;;10.31;100.00;94839.66;5009808;28;20203;-78
2023/04/30 04:21:50;;;;;;;1999.90;999.90;;;;;;;10.34;100.00;94849.75;5010050;28;20207;-76
2023/04/30 04:24:16;;;;;;;1999.90;999.90;;;;;;;10.13;100.00;94852.81;5009628;28;20305;-78
2023/04/30 04:26:41;;;;;;;1999.90;999.90;;;;;;;10.40;100.00;94842.63;5009816;28;20229;-77
2023/04/30 04:29:09;;;;;;;1999.90;999.90;;;;;;;10.33;100.00;94854.44;5009660;28;20207;-78
2023/04/30 04:31:35;;;;;;;1999.90;999.90;;;;;;;10.41;100.00;94866.00;5009868;28;20204;-79
2023/04/30 04:34:03;;;;;;;1999.90;999.90;;;;;;;10.47;100.00;94875.25;5009528;28;20301;-77
2023/04/30 04:36:29;;;;;;;1999.90;999.90;;;;;;;10.47;100.00;94872.53;5009536;28;20252;-76
2023/04/30 04:39:00;;;;;;;1999.90;999.90;;;;;;;10.43;100.00;94880.78;5009580;28;20196;-80
2023/04/30 04:41:31;;;;;;;1999.90;999.90;;;;;;;10.51;100.00;94881.44;5009716;28;20242;-79
2023/04/30 04:43:57;;;;;;;1999.90;999.90;;;;;;;10.55;100.00;94882.13;5009118;28;20186;-78
2023/04/30 04:46:24;;;;;;;1999.90;999.90;;;;;;;10.41;100.00;94888.59;5009595;28;20252;-78
2023/04/30 04:48:49;;;;;;;1999.90;999.90;;;;;;;10.45;100.00;94877.66;5009078;28;20205;-78
2023/04/30 04:51:14;;;;;;;1999.90;999.90;;;;;;;10.42;100.00;94879.25;5009425;28;20211;-77
2023/04/30 04:53:40;;;;;;;1999.90;999.90;;;;;;;10.50;100.00;94874.44;5009027;28;20314;-76
2023/04/30 04:56:06;;;;;;;1999.90;999.90;;;;;;;10.54;100.00;94886.06;5008901;28;20210;-77
2023/04/30 04:58:32;;;;;;;1999.90;999.90;;;;;;;10.60;100.00;94895.34;5008979;28;20271;-76
2023/04/30 05:00:58;;;;;;;1999.90;999.90;;;;;;;10.58;100.00;94887.56;5009183;28;20212;-79
2023/04/30 05:03:25;;;;;;;1999.90;999.90;;;;;;;10.45;100.00;94904.94;5009045;28;20261;-80
2023/04/30 05:05:51;;;;;;;1999.90;999.90;;;;;;;10.49;100.00;94895.50;5008821;28;20221;-80
2023/04/30 05:08:16;;;;;;;1999.90;999.90;;;;;;;10.59;100.00;94889.09;5008849;28;20199;-81
2023/04/30 05:10:42;;;;;;;1999.90;999.90;;;;;;;10.66;100.00;94896.38;5009072;28;20239;-82
2023/04/30 05:13:07;;;;;;;1999.90;999.90;;;;;;;10.65;100.00;94903.03;5008578;28;20194;-78
2023/04/30 05:15:32;;;;;;;1999.90;999.90;;;;;;;10.51;100.00;94908.72;5009262;28;20212;-79
2023/04/30 05:17:58;;;;;;;1999.90;999.90;;;;;;;10.59;100.00;94910.19;5009137;28;20245;-79
2023/04/30 05:20:23;;;;;;;1999.90;999.90;;;;;;;10.79;100.00;94913.72;5008917;28;20210;-79
2023/04/30 05:22:49;;;;;;;1999.90;999.90;;;;;;;10.95;100.00;94932.97;5008591;28;20206;-80
2023/04/30 05:25:14;;;;;;;1999.90;999.90;;;;;;;11.12;100.00;94945.56;5008880;28;20211;-78
2023/04/30 05:27:39;;;;;;;1999.90;999.90;;;;;;;11.09;100.00;94987.38;5008346;28;20199;-80
2023/04/30 05:30:06;;;;;;;1999.90;999.90;;;;;;;11.12;100.00;94997.47;5008381;28;20199;-80
2023/04/30 05:32:31;;;;;;;1999.90;999.90;;;;;;;11.16;100.00;95041.91;5008218;28;20194;-80
2023/04/30 05:34:56;;;;;;;1999.90;999.90;;;;;;;11.05;100.00;95053.03;5008534;28;20202;-80
2023/04/30 05:37:22;;;;;;;1999.90;999.90;;;;;;;11.14;100.00;95055.97;5008363;28;20195;-80
2023/04/30 05:39:47;;;;;;;1999.90;999.90;;;;;;;10.85;100.00;95081.44;5008765;28;20211;-80
2023/04/30 05:42:13;;;;;;;1999.90;999.90;;;;;;;10.75;100.00;95060.50;5008133;28;20195;-78
2023/04/30 05:44:39;;;;;;;1999.90;999.90;;;;;;;10.86;100.00;95034.59;5008397;28;20233;-78
2023/04/30 05:47:04;;;;;;;1999.90;999.90;;;;;;;10.88;100.00;95026.72;5008409;28;20237;-78
2023/04/30 05:49:30;;;;;;;1999.90;999.90;;;;;;;10.87;100.00;95035.34;5008263;28;20200;-78
2023/04/30 05:51:56;;;;;;;1999.90;999.90;;;;;;;11.06;100.00;95042.84;5008042;28;20207;-78
2023/04/30 05:54:21;;;;;;;1999.90;999.90;;;;;;;11.10;100.00;95049.03;5008007;28;20202;-78
2023/04/30 05:56:47;;;;;;;1999.90;999.90;;;;;;;11.34;100.00;95064.25;5008059;28;20253;-78
2023/04/30 05:59:12;;;;;;;1999.90;999.90;;;;;;;11.09;100.00;95088.47;5008056;28;20205;-78
2023/04/30 06:01:38;;;;;;;1999.90;999.90;;;;;;;11.09;100.00;95102.13;5007943;28;20222;-77
2023/04/30 06:04:04;;;;;;;1999.90;999.90;;;;;;;10.89;100.00;95098.53;5007752;28;20210;-77
2023/04/30 06:06:30;;;;;;;1999.90;999.90;;;;;;;11.17;100.00;95076.25;5008391;28;20289;-77
2023/04/30 06:08:56;;;;;;;1999.90;999.90;;;;;;;11.26;100.00;95095.63;5007777;28;20224;-80
2023/04/30 06:11:21;;;;;;;1999.90;999.90;;;;;;;11.49;100.00;95121.03;5007915;28;20194;-80
2023/04/30 06:13:48;;;;;;;1999.90;999.90;;;;;;;11.54;100.00;95144.41;5007676;28;20205;-80
2023/04/30 06:16:13;;;;;;;1999.90;999.90;;;;;;;11.59;100.00;95169.31;5008057;28;20185;-79
2023/04/30 06:18:38;;;;;;;1999.90;999.90;;;;;;;11.86;100.00;95199.38;5008179;28;20236;-78
2023/04/30 06:21:04;;;;;;;1999.90;999.90;;;;;;;11.97;100.00;95227.34;5007971;28;20199;-79
2023/04/30 06:23:29;;;;;;;1999.90;999.90;;;;;;;11.86;100.00;95257.63;5007525;28;20195;-80
2023/04/30 06:25:55;;;;;;;1999.90;999.90;;;;;;;12.07;100.00;95286.63;5008217;28;20213;-79
2023/04/30 06:28:20;;;;;;;1999.90;999.90;;;;;;;11.96;100.00;95302.44;5007472;28;20206;-78
2023/04/30 06:30:46;;;;;;;1999.90;999.90;;;;;;;12.23;100.00;95312.19;5007486;28;20201;-75
2023/04/30 06:33:11;;;;;;;1999.90;999.90;;;;;;;12.37;100.00;95333.06;5007475;28;20198;-73
2023/04/30 06:35:37;;;;;;;1999.90;999.90;;;;;;;12.70;100.00;95340.34;5007320;28;20237;-71
2023/04/30 06:38:02;;;;;;;1999.90;999.90;;;;;;;13.03;100.00;95375.03;5007619;28;20203;-79
2023/04/30 06:40:28;;;;;;;1999.90;999.90;;;;;;;13.35;100.00;95397.16;5007891;28;20191;-73
2023/04/30 06:42:53;;;;;;;1999.90;999.90;;;;;;;13.52;100.00;95423.50;5007716;28;20206;-74
2023/04/30 06:45:19;;;;;;;1999.90;999.90;;;;;;;12.92;100.00;95430.00;5007654;28;20203;-75
2023/04/30 06:47:45;;;;;;;1999.90;999.90;;;;;;;14.07;100.00;95459.25;5007475;28;20168;-71
2023/04/30 06:50:11;;;;;;;1999.90;999.90;;;;;;;15.55;100.00;95476.63;5007726;28;20199;-72
2023/04/30 06:52:36;;;;;;;1999.90;999.90;;;;;;;16.40;100.00;95506.13;5007532;28;20266;-73
2023/04/30 06:55:02;;;;;;;1999.90;999.90;;;;;;;17.28;100.00;95511.75;5007564;28;20203;-72
2023/04/30 06:57:27;;;;;;;1999.90;999.90;;;;;;;18.48;100.00;95519.50;5007320;28;20227;-78
2023/04/30 06:59:53;;;;;;;1999.90;999.90;;;;;;;18.25;100.00;95530.97;5007330;28;20199;-77
2023/04/30 07:02:19;;;;;;;1999.90;999.90;;;;;;;18.35;100.00;95530.63;5007184;28;20266;-74
2023/04/30 07:04:44;;;;;;;1999.90;999.90;;;;;;;19.45;100.00;95544.63;5007114;28;20219;-75
2023/04/30 07:07:10;;;;;;;1999.90;999.90;;;;;;;19.07;100.00;95535.81;5007186;28;20282;-74
2023/04/30 07:09:35;;;;;;;1999.90;999.90;;;;;;;19.04;100.00;95536.72;5007141;28;20206;-67
2023/04/30 07:12:01;;;;;;;1999.90;999.90;;;;;;;18.54;100.00;95537.81;5007355;28;20187;-65
2023/04/30 07:14:27;;;;;;;1999.90;999.90;;;;;;;18.27;100.00;95539.59;5006885;28;20198;-66
2023/04/30 07:16:52;;;;;;;1999.90;999.90;;;;;;;17.45;100.00;95540.03;5007477;28;20178;-65
2023/04/30 07:19:18;;;;;;;1999.90;999.90;;;;;;;17.55;100.00;95533.41;5007465;28;20202;-66
2023/04/30 07:21:44;;;;;;;1999.90;999.90;;;;;;;17.30;100.00;95533.41;5010543;28;20218;-65
2023/04/30 07:24:09;;;;;;;1999.90;999.90;;;;;;;17.65;100.00;95535.03;5011133;28;20213;-67
2023/04/30 07:26:35;;;;;;;1999.90;999.90;;;;;;;18.55;100.00;95530.31;5011293;28;20207;-69
2023/04/30 07:29:01;;;;;;;1999.90;999.90;;;;;;;18.73;100.00;95533.19;5010730;28;20273;-64
2023/04/30 07:31:26;;;;;;;1999.90;999.90;;;;;;;18.86;100.00;95536.63;5010417;28;20241;-64
2023/04/30 07:33:54;;;;;;;1999.90;999.90;;;;;;;18.68;100.00;95537.31;5010456;28;20200;-62
2023/04/30 07:36:19;;;;;;;1999.90;999.90;;;;;;;20.40;100.00;95530.28;5010592;28;20198;-65
2023/04/30 07:38:45;;;;;;;1999.90;999.90;;;;;;;19.98;100.00;95543.22;5010426;28;20201;-66
2023/04/30 07:41:10;;;;;;;1999.90;999.90;;;;;;;18.70;100.00;95539.63;5011106;28;20195;-67
2023/04/30 07:43:36;;;;;;;1999.90;999.90;;;;;;;19.80;100.00;95531.31;5010050;28;20206;-71
2023/04/30 07:46:01;;;;;;;1999.90;999.90;;;;;;;18.21;100.00;95541.41;5010086;28;20214;-73
2023/04/30 07:48:27;;;;;;;1999.90;999.90;;;;;;;16.81;100.00;95540.44;5010762;28;20211;-69
2023/04/30 07:50:52;;;;;;;1999.90;999.90;;;;;;;18.61;100.00;95532.03;5010210;28;20195;-72
2023/04/30 07:53:17;;;;;;;1999.90;999.90;;;;;;;18.77;100.00;95528.28;5010114;28;20201;-77
2023/04/30 07:55:43;;;;;;;1999.90;999.90;;;;;;;18.30;100.00;95533.16;5010132;28;20273;-71
2023/04/30 07:58:08;;;;;;;1999.90;999.90;;;;;;;19.35;100.00;95518.13;5010056;28;20233;-73
2023/04/30 08:00:33;;;;;;;1999.90;999.90;;;;;;;21.31;100.00;95526.09;5010081;28;20202;-72
2023/04/30 08:02:59;;;;;;;1999.90;999.90;;;;;;;18.65;100.00;95534.69;5010043;28;20191;-71
2023/04/30 08:05:25;;;;;;;1999.90;999.90;;;;;;;17.15;100.00;95526.78;5010067;28;20245;-70
2023/04/30 08:07:51;;;;;;;1999.90;999.90;;;;;;;17.96;100.00;95524.91;5009933;28;20195;-68
2023/04/30 08:10:16;;;;;;;1999.90;999.90;;;;;;;19.54;100.00;95530.81;5009853;28;20246;-67
2023/04/30 08:12:42;;;;;;;1999.90;999.90;;;;;;;19.12;100.00;95532.44;5009956;28;20195;-75
2023/04/30 08:15:07;;;;;;;1999.90;999.90;;;;;;;18.43;100.00;95542.22;5009854;28;20191;-70
2023/04/30 08:17:33;;;;;;;1999.90;999.90;;;;;;;18.34;100.00;95533.81;5009645;28;20217;-74
2023/04/30 08:20:03;;;;;;;1999.90;999.90;;;;;;;18.27;100.00;95531.28;5009706;28;20178;-72
2023/04/30 08:22:29;;;;;;;1999.90;999.90;;;;;;;17.25;100.00;95537.50;5010007;28;20206;-70
2023/04/30 08:24:54;;;;;;;1999.90;999.90;;;;;;;17.53;100.00;95524.78;5009571;28;20270;-70
2023/04/30 08:27:20;;;;;;;1999.90;999.90;;;;;;;17.89;100.00;95547.25;5009755;28;20218;-71
2023/04/30 08:29:46;;;;;;;1999.90;999.90;;;;;;;17.29;100.00;95526.31;5009386;28;20221;-70
2023/04/30 08:32:11;;;;;;;1999.90;999.90;;;;;;;19.03;100.00;95532.41;5008833;28;20202;-71
2023/04/30 08:34:39;;;;;;;1999.90;999.90;;;;;;;18.15;100.00;95535.66;5009443;28;20195;-73
2023/04/30 08:37:05;;;;;;;1999.90;999.90;;;;;;;18.27;100.00;95523.78;5009479;28;20214;-66
2023/04/30 08:39:30;;;;;;;1999.90;999.90;;;;;;;17.41;100.00;95522.78;5009248;28;20199;-66
2023/04/30 08:42:01;;;;;;;1999.90;999.90;;;;;;;18.63;100.00;95535.13;5009225;28;20206;-65
2023/04/30 08:44:27;;;;;;;1999.90;999.90;;;;;;;18.60;100.00;95524.19;5009208;28;20208;-66
2023/04/30 08:46:53;;;;;;;1999.90;999.90;;;;;;;18.90;100.00;95528.97;5009451;28;20217;-66
2023/04/30 08:49:20;;;;;;;1999.90;999.90;;;;;;;17.99;100.00;95532.31;5009549;28;20203;-65
2023/04/30 08:51:46;;;;;;;1999.90;999.90;;;;;;;17.89;100.00;95531.41;5009525;28;20226;-62
2023/04/30 08:54:13;;;;;;;1999.90;999.90;;;;;;;17.74;100.00;95529.59;5009258;28;20198;-64
2023/04/30 08:56:39;;;;;;;1999.90;999.90;;;;;;;17.84;100.00;95531.22;5008733;28;20195;-63
2023/04/30 08:59:05;;;;;;;1999.90;999.90;;;;;;;17.37;100.00;95524.91;5008850;28;20314;-71
2023/04/30 09:01:30;;;;;;;1999.90;999.90;;;;;;;16.73;100.00;95534.38;5008897;28;20195;-69
2023/04/30 09:03:56;;;;;;;1999.90;999.90;;;;;;;16.32;100.00;95545.41;5009262;28;20238;-70
2023/04/30 09:06:21;;;;;;;1999.90;999.90;;;;;;;16.25;100.00;95532.56;5008757;28;20233;-70
2023/04/30 09:08:48;;;;;;;1999.90;999.90;;;;;;;16.07;100.00;95551.56;5008722;28;20195;-69
2023/04/30 09:11:29;;;;;;;1999.90;999.90;;;;;;;15.72;100.00;95555.25;5008612;28;20253;-70
2023/04/30 09:13:56;;;;;;;1999.90;999.90;;;;;;;15.62;100.00;95545.28;5009126;28;20213;-69
2023/04/30 09:16:23;;;;;;;1999.90;999.90;;;;;;;15.18;100.00;95553.41;5009092;28;20199;-71
2023/04/30 09:18:48;;;;;;;1999.90;999.90;;;;;;;15.37;100.00;95544.34;5008956;28;20187;-70
2023/04/30 09:21:14;;;;;;;1999.90;999.90;;;;;;;15.70;100.00;95543.13;5008816;28;20205;-72
2023/04/30 09:24:00;;;;;;;1999.90;999.90;;;;;;;16.37;100.00;95540.13;5008665;28;20257;-70
2023/04/30 09:26:36;;;;;;;1999.90;999.90;;;;;;;15.91;100.00;95551.59;5008283;28;20289;-67
2023/04/30 09:29:06;;;;;;;1999.90;999.90;;;;;;;15.78;100.00;95534.22;5008375;28;20186;-69
2023/04/30 09:31:32;;;;;;;1999.90;999.90;;;;;;;15.33;100.00;95544.41;5008307;28;20279;-70
2023/04/30 09:33:58;;;;;;;1999.90;999.90;;;;;;;15.53;100.00;95544.34;5008542;28;20182;-64
2023/04/30 09:36:23;;;;;;;1999.90;999.90;;;;;;;15.11;100.00;95543.34;5008073;28;20233;-65
2023/04/30 09:38:49;;;;;;;1999.90;999.90;;;;;;;14.90;100.00;95549.31;5008947;28;20203;-66
2023/04/30 09:41:22;;;;;;;1999.90;999.90;;;;;;;14.63;100.00;95557.00;5008770;28;20187;-65
2023/04/30 09:43:47;;;;;;;1999.90;999.90;;;;;;;14.72;100.00;95551.69;5007730;28;20199;-67
2023/04/30 09:46:13;;;;;;;1999.90;999.90;;;;;;;14.64;100.00;95558.53;5007926;28;20214;-67
2023/04/30 09:48:40;;;;;;;1999.90;999.90;;;;;;;14.55;100.00;95558.34;5008439;28;20195;-78
2023/04/30 09:51:06;;;;;;;1999.90;999.90;;;;;;;14.38;100.00;95555.97;5008468;28;20262;-77
2023/04/30 09:53:36;;;;;;;1999.90;999.90;;;;;;;14.50;100.00;95552.59;5007864;28;20202;-74
2023/04/30 09:56:06;;;;;;;1999.90;999.90;;;;;;;14.31;100.00;95551.38;5008100;28;20275;-73
2023/04/30 09:58:39;;;;;;;1999.90;999.90;;;;;;;14.70;100.00;95540.34;5008299;28;20199;-68
2023/04/30 10:01:07;;;;;;;1999.90;999.90;;;;;;;14.76;100.00;95544.16;5008367;28;20202;-72
2023/04/30 10:03:33;;;;;;;1999.90;999.90;;;;;;;14.91;100.00;95550.91;5008288;28;20318;-68
2023/04/30 10:05:59;;;;;;;1999.90;999.90;;;;;;;14.85;100.00;95547.09;5007873;28;20215;-72
2023/04/30 10:08:33;;;;;;;1999.90;999.90;;;;;;;15.24;100.00;95546.97;5007864;28;20317;-73
2023/04/30 10:11:03;;;;;;;1999.90;999.90;;;;;;;14.90;100.00;95538.31;5008103;28;20203;-76
2023/04/30 10:13:53;;;;;;;1999.90;999.90;;;;;;;15.21;100.00;95536.84;5007749;28;20199;-72
2023/04/30 10:16:23;;;;;;;1999.90;999.90;;;;;;;15.07;100.00;95534.41;5007535;28;20218;-68
2023/04/30 10:18:51;;;;;;;1999.90;999.90;;;;;;;16.02;100.00;95541.06;5007972;28;20190;-68
2023/04/30 10:21:20;;;;;;;1999.90;999.90;;;;;;;15.48;100.00;95529.09;5007630;28;20183;-68
2023/04/30 10:23:45;;;;;;;1999.90;999.90;;;;;;;15.54;100.00;95532.91;5007814;28;20175;-66
2023/04/30 10:26:11;;;;;;;1999.90;999.90;;;;;;;15.71;100.00;95525.38;5007559;28;20238;-70
2023/04/30 10:28:37;;;;;;;1999.90;999.90;;;;;;;16.06;100.00;95516.97;5007972;28;20210;-70
2023/04/30 10:31:04;;;;;;;1999.90;999.90;;;;;;;15.61;100.00;95532.72;5008211;28;20190;-71
2023/04/30 10:33:48;;;;;;;1999.90;999.90;;;;;;;15.94;100.00;95506.66;5007714;28;20190;-71
2023/04/30 10:36:23;;;;;;;1999.90;999.90;;;;;;;15.93;100.00;95507.88;5007215;28;20201;-70
2023/04/30 10:38:49;;;;;;;1999.90;999.90;;;;;;;16.04;100.00;95516.63;5007356;28;20186;-68
2023/04/30 10:41:15;;;;;;;1999.90;999.90;;;;;;;15.86;100.00;95499.03;5007552;28;20257;-68
2023/04/30 10:43:40;;;;;;;1999.90;999.90;;;;;;;16.43;100.00;95504.53;5007433;28;20191;-69
2023/04/30 10:46:07;;;;;;;1999.90;999.90;;;;;;;16.83;100.00;95499.41;5007035;28;20226;-75